Machine Overzicht

Generator events en service beheer
Records
354,124
Machines
263
Starts
29,726
Warnings
20,390
25 resultaten · pagina 13992 van 14165
Dubbelklik service uren om te bewerken
ID Machine Gebeurtenis Tijd Uren Service Status USB ID
4345 250-007 XASIB-S5 Engine Stopped 15-08-2024 11:40:17 2 500 In orde 6F2DC33481
4346 250-007 XASIB-S5 Aardlek fout ! Shutdown 15-08-2024 11:40:08 2 500 In orde 6F2DC33481
4347 250-007 XASIB-S5 Engine Start 15-08-2024 11:39:47 2 500 In orde 6F2DC33481
4348 250-007 XASIB-S5 Engine Stopped 15-08-2024 11:39:33 2 500 In orde 6F2DC33481
4349 250-007 XASIB-S5 Aardlek fout ! Shutdown 15-08-2024 11:39:24 2 500 In orde 6F2DC33481
4350 250-007 XASIB-S5 Engine Start 15-08-2024 11:39:03 2 500 In orde 6F2DC33481
4343 200-056XAS kW Overload Alarm Warning 15-08-2024 11:34:55 913 500 OVER BEURT URGENT! 6F2AB6379B
4342 100-063XASB-S5 Engine Stopped 15-08-2024 11:32:49 474 500 Service nodig! 6B2AC17954
4341 200-056XAS kW Overload Alarm Warning 15-08-2024 11:30:18 913 500 OVER BEURT URGENT! 6F2AB6379B
4340 200-056XAS kW Overload Alarm Warning 15-08-2024 11:22:30 913 500 OVER BEURT URGENT! 6F2AB6379B
4339 40-040XAI-S5 Engine Start 15-08-2024 11:19:15 349 500 In orde 6B2A725CD0
4338 200-056XAS Generator Over Current Warning 15-08-2024 11:14:15 913 500 OVER BEURT URGENT! 6F2AB6379B
4337 300-016XASB-S5 Engine Start 15-08-2024 10:57:58 725 500 OVER BEURT URGENT! 6E2CEFDBE7
4336 40-040XAI-S5 Engine Start 15-08-2024 10:11:31 349 500 In orde 6B2A725CD0
4335 40-042XAI-S5 Engine Stopped 15-08-2024 09:52:06 112 500 In orde 6D2A725CBF
4334 100-021 AI Engine Stopped 15-08-2024 09:50:12 18,618 500 OVER BEURT URGENT! 6C223B8BE1
4332 100-021 AI Engine Start 15-08-2024 09:47:55 18,618 500 OVER BEURT URGENT! 6C223B8BE1
4333 40-042XAI-S5 Engine Start 15-08-2024 09:46:43 112 500 In orde 6D2A725CBF
4331 100-058XAB-S5 Generator Over Volts Warning 15-08-2024 09:42:37 526 500 OVER BEURT URGENT! 25A2A752A7F
4330 200-059XASB-S5 ECU Lamp 15-08-2024 09:36:47 422 500 Service nodig! 6F2AC4052B
4329 100-059XAB-S5 Engine Start 15-08-2024 09:29:53 420 500 Service nodig! 2592AEE5901
4328 100-021 AI Engine Stopped 15-08-2024 09:09:45 18,618 500 OVER BEURT URGENT! 6C223B8BE1
4327 40-044XAI-S5 Engine Start 15-08-2024 09:05:17 93 500 In orde 25A2A752B7A
4326 100-021 AI Engine Start 15-08-2024 08:57:23 18,618 500 OVER BEURT URGENT! 6C223B8BE1
4325 100-021 AI Breaker Trip Warning 15-08-2024 08:46:08 18,618 500 OVER BEURT URGENT! 6C223B8BE1
349,776–349,800 van 354,124